createdAt,value
2018-07-24T00:02:08.873Z,98.60
2018-07-24T00:04:36.101Z,98.30
2018-07-24T00:07:03.216Z,98.50
2018-07-24T00:09:30.324Z,98.70
2018-07-24T00:11:57.524Z,98.80
2018-07-24T00:14:24.653Z,99.00
2018-07-24T00:16:51.753Z,99.30
2018-07-24T00:21:45.977Z,99.60
2018-07-24T00:24:13.087Z,99.70
2018-07-24T00:29:07.383Z,99.20
2018-07-24T00:31:35.021Z,99.30
2018-07-24T00:34:02.193Z,99.20
2018-07-24T00:36:29.309Z,99.40
2018-07-24T00:38:56.491Z,99.30
2018-07-24T00:41:23.632Z,99.60
2018-07-24T00:43:50.770Z,99.90
2018-07-24T00:46:18.033Z,99.90
2018-07-24T00:48:45.124Z,99.90
2018-07-24T00:51:12.285Z,99.90
2018-07-24T00:56:06.775Z,99.90
2018-07-24T00:58:33.996Z,99.90
2018-07-24T01:01:01.218Z,99.90
2018-07-24T01:03:28.372Z,99.90
2018-07-24T01:05:55.543Z,99.90
2018-07-24T01:08:22.731Z,99.90
2018-07-24T01:10:50.492Z,99.90
2018-07-24T01:13:17.725Z,99.90
2018-07-24T01:15:44.804Z,99.90
2018-07-24T01:18:11.940Z,99.90
2018-07-24T01:20:39.252Z,99.90
2018-07-24T01:23:06.496Z,99.90
2018-07-24T01:25:33.744Z,99.90
2018-07-24T01:28:00.900Z,99.90
2018-07-24T01:30:28.735Z,99.90
2018-07-24T01:32:55.932Z,99.90
2018-07-24T01:35:23.304Z,99.90
2018-07-24T01:37:50.402Z,99.90
2018-07-24T01:40:17.584Z,99.90
2018-07-24T01:42:44.728Z,99.90
2018-07-24T01:45:11.875Z,99.90
2018-07-24T01:47:39.081Z,99.90
2018-07-24T01:50:06.692Z,99.90
2018-07-24T01:52:33.844Z,99.90
2018-07-24T01:55:01.057Z,99.90
2018-07-24T01:57:28.372Z,99.90
2018-07-24T01:59:55.507Z,99.90
2018-07-24T02:04:50.115Z,99.90
2018-07-24T02:09:44.761Z,99.90
2018-07-24T02:12:12.017Z,99.90
2018-07-24T02:14:39.224Z,99.90
2018-07-24T02:17:06.437Z,99.90
2018-07-24T02:19:33.581Z,99.90
2018-07-24T02:22:00.701Z,99.90
2018-07-24T02:24:28.738Z,99.90
2018-07-24T02:26:55.911Z,99.90
2018-07-24T02:34:17.349Z,99.90
2018-07-24T02:36:44.704Z,99.90
2018-07-24T02:39:13.359Z,99.90
2018-07-24T02:41:40.612Z,99.90
2018-07-24T02:44:07.749Z,99.90
2018-07-24T02:46:34.867Z,99.90
2018-07-24T02:49:02.175Z,99.90
2018-07-24T02:51:29.464Z,99.90
2018-07-24T02:53:56.621Z,99.90
2018-07-24T02:56:23.783Z,99.90
2018-07-24T02:58:50.930Z,99.90
2018-07-24T03:01:18.421Z,99.90
2018-07-24T03:03:45.632Z,99.90
2018-07-24T03:06:12.869Z,99.90
2018-07-24T03:08:40.064Z,99.90
2018-07-24T03:11:07.257Z,99.90
2018-07-24T03:13:34.421Z,99.90
2018-07-24T03:16:01.577Z,99.90
2018-07-24T03:18:28.766Z,99.90
2018-07-24T03:20:55.873Z,99.90
2018-07-24T03:23:22.968Z,99.90
2018-07-24T03:25:50.300Z,99.90
2018-07-24T03:28:17.794Z,99.90
2018-07-24T03:30:44.936Z,99.90
2018-07-24T03:49:49.173Z,99.90
2018-07-24T03:52:16.331Z,99.90
2018-07-24T03:57:11.054Z,99.90
2018-07-24T03:59:38.249Z,99.90
2018-07-24T04:02:05.402Z,99.90
2018-07-24T04:04:32.508Z,99.90
2018-07-24T04:06:59.628Z,99.90
2018-07-24T04:09:26.752Z,99.90
2018-07-24T04:11:53.934Z,99.90
2018-07-24T04:14:21.383Z,99.90
2018-07-24T04:16:48.506Z,99.90
2018-07-24T04:19:15.678Z,99.90
2018-07-24T04:21:42.832Z,99.90
2018-07-24T04:24:10.102Z,99.90
2018-07-24T04:26:37.232Z,99.90
2018-07-24T04:29:04.898Z,99.90
2018-07-24T04:31:32.169Z,99.90
2018-07-24T04:33:59.368Z,99.90
2018-07-24T04:36:26.553Z,99.90
2018-07-24T04:38:53.805Z,99.90
2018-07-24T04:41:20.968Z,99.90
2018-07-24T04:43:48.084Z,99.90
2018-07-24T04:46:15.336Z,99.90
2018-07-24T04:48:42.530Z,99.90
2018-07-24T04:51:09.655Z,99.90
2018-07-24T04:53:37.944Z,99.90
2018-07-24T04:56:05.093Z,99.90
2018-07-24T04:58:32.267Z,99.90
2018-07-24T05:00:59.503Z,99.90
2018-07-24T05:03:26.720Z,99.90
2018-07-24T05:05:54.824Z,99.90
2018-07-24T05:08:21.980Z,99.90
2018-07-24T05:10:49.232Z,99.90
2018-07-24T05:13:17.268Z,99.90
2018-07-24T05:15:44.656Z,99.90
2018-07-24T05:18:11.825Z,99.90
2018-07-24T05:20:39.033Z,99.90
2018-07-24T05:23:06.290Z,99.90
2018-07-24T05:25:33.541Z,99.90
2018-07-24T05:28:00.808Z,99.90
2018-07-24T05:30:28.060Z,99.90
2018-07-24T05:32:55.826Z,99.90
2018-07-24T05:35:23.044Z,99.90
2018-07-24T05:37:50.218Z,99.90
2018-07-24T05:40:17.408Z,99.90
2018-07-24T05:42:44.619Z,99.90
2018-07-24T05:47:39.270Z,99.90
2018-07-24T05:52:34.789Z,99.90
2018-07-24T05:55:02.277Z,99.90
2018-07-24T05:57:30.088Z,99.90
2018-07-24T05:59:57.267Z,99.90
2018-07-24T06:02:24.508Z,99.90
2018-07-24T06:04:51.698Z,99.90
2018-07-24T06:07:18.919Z,99.90
2018-07-24T06:09:46.137Z,99.90
2018-07-24T06:14:40.916Z,99.90
2018-07-24T06:17:08.307Z,99.90
2018-07-24T06:22:02.597Z,99.90
2018-07-24T06:24:30.665Z,99.90
2018-07-24T06:26:58.604Z,99.90
2018-07-24T06:29:27.051Z,99.90
2018-07-24T06:31:54.360Z,99.90
2018-07-24T06:34:21.633Z,99.90
2018-07-24T06:36:48.813Z,99.90
2018-07-24T06:39:15.967Z,99.90
2018-07-24T06:41:43.259Z,99.90
2018-07-24T06:44:11.834Z,99.90
2018-07-24T06:46:39.642Z,99.20
2018-07-24T06:49:07.287Z,98.50
2018-07-24T06:51:35.915Z,98.60
2018-07-24T06:54:03.182Z,98.50
2018-07-24T06:56:30.732Z,97.70
2018-07-24T06:58:58.056Z,97.40
2018-07-24T07:01:25.345Z,97.30
2018-07-24T07:03:52.576Z,97.00
2018-07-24T07:06:19.792Z,96.20
2018-07-24T07:08:46.957Z,96.30
2018-07-24T07:11:14.137Z,95.90
2018-07-24T07:13:41.901Z,95.90
2018-07-24T07:16:09.275Z,95.60
2018-07-24T07:18:36.563Z,96.20
2018-07-24T07:21:03.701Z,95.90
2018-07-24T07:23:31.099Z,95.70
2018-07-24T07:25:58.381Z,95.70
2018-07-24T07:28:25.744Z,95.40
2018-07-24T07:30:53.042Z,95.50
2018-07-24T07:35:47.456Z,95.70
2018-07-24T07:38:14.626Z,95.30
2018-07-24T07:40:41.777Z,94.80
2018-07-24T07:43:09.418Z,94.80
2018-07-24T07:45:37.242Z,94.60
2018-07-24T07:48:04.554Z,94.40
2018-07-24T07:50:31.691Z,94.40
2018-07-24T07:55:26.137Z,94.30
2018-07-24T07:57:53.260Z,94.00
2018-07-24T08:00:20.384Z,93.90
2018-07-24T08:02:47.560Z,93.60
2018-07-24T08:05:14.816Z,93.30
2018-07-24T08:07:42.038Z,92.80
2018-07-24T08:12:36.544Z,92.10
2018-07-24T08:15:04.072Z,91.90
2018-07-24T08:17:31.301Z,91.80
2018-07-24T08:19:58.506Z,91.80
2018-07-24T08:22:25.833Z,91.90
2018-07-24T08:24:53.009Z,91.70
2018-07-24T08:27:20.233Z,91.20
2018-07-24T08:29:48.037Z,90.60
2018-07-24T08:32:15.399Z,90.10
2018-07-24T08:37:10.036Z,90.40
2018-07-24T08:39:37.176Z,90.00
2018-07-24T08:42:04.360Z,88.70
2018-07-24T08:44:31.562Z,89.20
2018-07-24T08:46:58.681Z,88.70
2018-07-24T08:49:25.924Z,87.60
2018-07-24T08:51:53.072Z,86.40
2018-07-24T08:54:20.452Z,86.70
2018-07-24T08:56:47.711Z,86.60
2018-07-24T08:59:14.968Z,86.40
2018-07-24T09:01:42.229Z,84.90
2018-07-24T09:04:09.579Z,84.60
2018-07-24T09:06:36.846Z,84.90
2018-07-24T09:11:33.496Z,82.70
2018-07-24T09:14:00.853Z,82.40
2018-07-24T09:16:27.997Z,81.40
2018-07-24T09:18:55.126Z,81.40
2018-07-24T09:21:22.362Z,81.20
2018-07-24T09:23:49.742Z,80.90
2018-07-24T09:26:17.012Z,80.20
2018-07-24T09:28:44.285Z,80.10
2018-07-24T09:31:12.199Z,80.30
2018-07-24T09:33:39.370Z,79.90
2018-07-24T09:36:06.622Z,80.00
2018-07-24T09:38:33.812Z,78.80
2018-07-24T09:41:01.018Z,77.60
2018-07-24T09:43:28.208Z,77.30
2018-07-24T09:45:55.459Z,77.00
2018-07-24T09:48:22.626Z,77.00
2018-07-24T09:53:18.880Z,76.10
2018-07-24T09:55:46.068Z,75.80
2018-07-24T09:58:14.218Z,72.70
2018-07-24T10:00:47.149Z,72.20
2018-07-24T10:03:14.324Z,71.60
2018-07-24T10:05:41.530Z,69.80
2018-07-24T10:10:35.959Z,69.60
2018-07-24T10:13:03.416Z,69.00
2018-07-24T10:15:30.488Z,68.80
2018-07-24T10:17:57.606Z,67.60
2018-07-24T10:20:24.880Z,67.70
2018-07-24T10:22:53.364Z,67.00
2018-07-24T10:25:20.693Z,66.30
2018-07-24T10:27:48.442Z,66.30
2018-07-24T10:30:15.759Z,64.80
2018-07-24T10:32:42.946Z,64.70
2018-07-24T10:35:11.178Z,63.60
2018-07-24T10:37:38.429Z,62.40
2018-07-24T10:40:05.718Z,62.20
2018-07-24T10:42:32.951Z,60.20
2018-07-24T10:45:00.074Z,59.50
2018-07-24T10:49:55.242Z,62.40
2018-07-24T10:52:22.601Z,62.90
2018-07-24T10:54:49.855Z,63.80
2018-07-24T10:57:17.976Z,59.70
2018-07-24T11:02:12.503Z,59.40
2018-07-24T11:04:39.755Z,58.50
2018-07-24T11:07:07.670Z,58.40
2018-07-24T11:09:34.924Z,58.40
2018-07-24T11:12:02.179Z,58.70
2018-07-24T11:14:30.054Z,58.30
2018-07-24T11:16:58.024Z,57.80
2018-07-24T11:19:25.277Z,57.30
2018-07-24T11:21:52.558Z,55.90
2018-07-24T11:24:20.004Z,55.30
2018-07-24T11:26:48.296Z,54.80
2018-07-24T11:31:42.909Z,53.70
2018-07-24T11:34:10.628Z,54.40
2018-07-24T11:36:38.103Z,54.50
2018-07-24T11:39:06.768Z,54.00
2018-07-24T11:41:33.938Z,54.00
2018-07-24T11:44:02.235Z,53.80
2018-07-24T11:46:29.393Z,54.00
2018-07-24T11:48:56.714Z,53.30
2018-07-24T11:51:24.456Z,53.10
2018-07-24T11:53:52.909Z,52.60
2018-07-24T11:56:20.319Z,52.70
2018-07-24T11:58:47.600Z,52.40
2018-07-24T12:01:14.700Z,51.70
2018-07-24T12:03:41.940Z,51.40
2018-07-24T12:06:10.172Z,50.90
2018-07-24T12:08:37.375Z,50.90
2018-07-24T12:13:32.025Z,50.90
2018-07-24T12:15:59.286Z,50.70
2018-07-24T12:18:27.281Z,50.80
2018-07-24T12:20:54.452Z,51.10
2018-07-24T12:23:21.789Z,50.30
2018-07-24T12:25:48.942Z,50.70
2018-07-24T12:28:16.087Z,50.90
2018-07-24T12:30:43.324Z,50.80
2018-07-24T12:33:10.515Z,50.10
2018-07-24T12:38:05.125Z,50.10
2018-07-24T12:40:32.587Z,50.30
2018-07-24T12:43:00.047Z,49.70
2018-07-24T12:45:27.599Z,49.50
2018-07-24T12:47:56.856Z,48.70
2018-07-24T12:50:24.461Z,48.80
2018-07-24T12:52:51.671Z,48.80
2018-07-24T12:55:18.816Z,48.80
2018-07-24T12:57:46.295Z,47.80
2018-07-24T13:00:13.448Z,47.00
2018-07-24T13:02:40.713Z,47.10
2018-07-24T13:05:07.924Z,47.60
2018-07-24T13:07:35.071Z,47.00
2018-07-24T13:10:02.321Z,47.10
2018-07-24T13:12:29.622Z,47.10
2018-07-24T13:14:58.132Z,46.40
2018-07-24T13:17:25.375Z,47.00
2018-07-24T13:19:52.586Z,46.10
2018-07-24T13:22:19.862Z,46.30
2018-07-24T13:24:47.188Z,46.60
2018-07-24T13:27:14.326Z,46.70
2018-07-24T13:32:08.868Z,46.40
2018-07-24T13:34:36.216Z,46.40
2018-07-24T13:37:03.430Z,46.90
2018-07-24T13:39:31.644Z,46.80
2018-07-24T13:41:59.966Z,46.90
2018-07-24T13:44:27.156Z,47.30
2018-07-24T13:46:54.640Z,46.60
2018-07-24T13:49:21.864Z,47.00
2018-07-24T13:51:49.073Z,47.50
2018-07-24T13:54:16.237Z,47.20
2018-07-24T13:56:43.424Z,46.90
2018-07-24T13:59:10.674Z,46.00
2018-07-24T14:01:37.867Z,46.10
2018-07-24T14:04:05.161Z,45.70
2018-07-24T14:06:32.368Z,45.10
2018-07-24T14:08:59.581Z,44.90
2018-07-24T14:11:26.745Z,44.90
2018-07-24T14:13:53.995Z,44.70
2018-07-24T14:16:21.791Z,44.80
2018-07-24T14:18:49.089Z,44.50
2018-07-24T14:21:16.573Z,44.40
2018-07-24T14:23:43.799Z,45.50
2018-07-24T14:26:10.961Z,45.20
2018-07-24T14:28:38.265Z,44.50
2018-07-24T14:31:05.453Z,44.60
2018-07-24T14:33:32.599Z,43.70
2018-07-24T14:35:59.757Z,44.10
2018-07-24T14:38:27.187Z,43.30
2018-07-24T14:40:55.244Z,43.80
2018-07-24T14:43:22.575Z,42.80
2018-07-24T14:48:16.954Z,43.20
2018-07-24T14:50:44.108Z,41.80
2018-07-24T14:53:11.401Z,42.30
2018-07-24T14:55:38.652Z,42.60
2018-07-24T14:58:05.904Z,41.60
2018-07-24T15:00:33.211Z,41.90
2018-07-24T15:03:02.004Z,41.40
2018-07-24T15:05:29.780Z,41.60
2018-07-24T15:07:57.214Z,41.40
2018-07-24T15:10:24.700Z,41.10
2018-07-24T15:12:52.083Z,40.50
2018-07-24T15:15:19.434Z,40.40
2018-07-24T15:17:46.614Z,39.20
2018-07-24T15:20:15.369Z,39.50
2018-07-24T15:22:42.688Z,39.20
2018-07-24T15:25:10.950Z,39.50
2018-07-24T15:27:38.153Z,39.50
2018-07-24T15:30:06.839Z,39.10
2018-07-24T15:32:35.138Z,39.60
2018-07-24T15:35:03.196Z,39.10
2018-07-24T15:37:30.369Z,38.90
2018-07-24T15:39:57.689Z,38.30
2018-07-24T15:42:24.849Z,37.70
2018-07-24T15:44:52.384Z,37.20
2018-07-24T15:47:19.659Z,37.50
2018-07-24T15:49:49.060Z,38.20
2018-07-24T15:52:16.312Z,37.50
2018-07-24T15:54:44.512Z,36.80
2018-07-24T15:59:38.949Z,37.50
2018-07-24T16:02:06.545Z,37.90
2018-07-24T16:04:33.727Z,38.10
2018-07-24T16:07:01.060Z,37.90
2018-07-24T16:09:28.311Z,38.10
2018-07-24T16:11:55.523Z,38.30
2018-07-24T16:14:22.713Z,38.80
2018-07-24T16:16:49.960Z,37.90
2018-07-24T16:19:17.893Z,37.80
2018-07-24T16:24:12.396Z,37.90
2018-07-24T16:26:39.787Z,37.70
2018-07-24T16:29:07.218Z,37.60
2018-07-24T16:31:34.580Z,37.40
2018-07-24T16:34:02.338Z,38.10
2018-07-24T16:36:29.688Z,37.70
2018-07-24T16:39:00.038Z,37.80
2018-07-24T16:41:27.326Z,37.20
2018-07-24T16:43:54.536Z,36.40
2018-07-24T16:48:49.546Z,36.90
2018-07-24T16:51:17.056Z,36.50
2018-07-24T16:53:45.568Z,36.40
2018-07-24T16:56:12.791Z,37.00
2018-07-24T16:58:40.017Z,36.90
2018-07-24T17:01:07.317Z,36.50
2018-07-24T17:03:34.682Z,36.50
2018-07-24T17:06:01.946Z,35.90
2018-07-24T17:08:29.550Z,35.60
2018-07-24T17:10:56.840Z,35.90
2018-07-24T17:13:24.255Z,36.10
2018-07-24T17:15:51.730Z,36.50
2018-07-24T17:18:18.959Z,36.40
2018-07-24T17:20:46.106Z,36.40
2018-07-24T17:25:40.530Z,36.40
2018-07-24T17:28:08.394Z,37.20
2018-07-24T17:30:35.597Z,37.10
2018-07-24T17:35:30.054Z,37.30
2018-07-24T17:37:57.805Z,37.40
2018-07-24T17:40:26.020Z,37.20
2018-07-24T17:42:54.023Z,37.60
2018-07-24T17:45:21.196Z,37.90
2018-07-24T17:47:48.528Z,38.20
2018-07-24T17:50:15.693Z,38.50
2018-07-24T17:55:10.761Z,38.40
2018-07-24T17:57:38.044Z,38.80
2018-07-24T18:00:05.402Z,38.90
2018-07-24T18:02:32.784Z,38.70
2018-07-24T18:07:27.249Z,38.70
2018-07-24T18:12:21.757Z,38.60
2018-07-24T18:14:48.959Z,38.70
2018-07-24T18:17:16.136Z,38.40
2018-07-24T18:19:43.328Z,38.10
2018-07-24T18:22:10.926Z,38.40
2018-07-24T18:27:06.073Z,38.50
2018-07-24T18:29:33.266Z,38.60
2018-07-24T18:32:00.417Z,38.70
2018-07-24T18:34:27.669Z,39.00
2018-07-24T18:36:54.900Z,39.50
2018-07-24T18:39:22.769Z,39.10
2018-07-24T18:41:50.009Z,39.10
2018-07-24T18:44:17.879Z,39.10
2018-07-24T18:46:45.226Z,39.20
2018-07-24T18:49:13.443Z,39.10
2018-07-24T18:51:40.811Z,40.30
2018-07-24T18:54:08.696Z,40.20
2018-07-24T18:56:36.123Z,40.00
2018-07-24T18:59:03.631Z,40.20
2018-07-24T19:01:30.932Z,40.70
2018-07-24T19:03:58.853Z,41.70
2018-07-24T19:06:26.024Z,42.50
2018-07-24T19:08:53.502Z,43.10
2018-07-24T19:11:20.862Z,43.50
2018-07-24T19:16:16.109Z,44.50
2018-07-24T19:18:43.943Z,45.10
2018-07-24T19:21:11.579Z,45.90
2018-07-24T19:23:40.300Z,46.00
2018-07-24T19:26:07.613Z,46.40
2018-07-24T19:28:35.539Z,46.40
2018-07-24T19:31:03.095Z,46.30
2018-07-24T19:35:57.612Z,47.40
2018-07-24T19:38:25.019Z,48.30
2018-07-24T19:48:15.684Z,48.80
2018-07-24T19:53:11.149Z,49.70
2018-07-24T19:55:38.512Z,50.30
2018-07-24T19:58:06.732Z,50.60
2018-07-24T20:00:35.116Z,50.80
2018-07-24T20:03:03.886Z,51.30
2018-07-24T20:05:31.108Z,51.70
2018-07-24T20:07:58.976Z,51.80
2018-07-24T20:10:26.295Z,52.40
2018-07-24T20:12:53.963Z,52.50
2018-07-24T20:17:48.542Z,52.80
2018-07-24T20:20:16.604Z,53.10
2018-07-24T20:22:44.728Z,53.20
2018-07-24T20:25:12.238Z,53.40
2018-07-24T20:27:39.637Z,53.90
2018-07-24T20:30:07.244Z,53.90
2018-07-24T20:32:34.840Z,53.60
2018-07-24T20:35:03.604Z,53.40
2018-07-24T20:37:31.820Z,53.90
2018-07-24T20:40:00.891Z,54.20
2018-07-24T20:59:11.911Z,56.80
2018-07-24T21:04:07.459Z,57.00
2018-07-24T21:06:35.458Z,57.00
2018-07-24T21:09:04.779Z,57.30
2018-07-24T21:11:32.881Z,57.10
2018-07-24T21:14:01.144Z,57.10
2018-07-24T21:16:28.473Z,57.50
2018-07-24T21:18:55.718Z,58.60
2018-07-24T21:21:22.947Z,59.10
2018-07-24T21:28:45.693Z,59.60
2018-07-24T21:31:13.326Z,59.80
2018-07-24T21:33:40.532Z,59.50
2018-07-24T21:38:35.116Z,60.10
2018-07-24T21:41:02.523Z,59.90
2018-07-24T21:43:30.051Z,60.70
2018-07-24T21:45:57.539Z,60.80
2018-07-24T21:48:24.705Z,59.70
2018-07-24T21:53:19.006Z,59.70
2018-07-24T21:55:46.380Z,59.80
2018-07-24T21:58:14.379Z,60.20
2018-07-24T22:00:41.642Z,60.60
2018-07-24T22:03:09.001Z,61.40
2018-07-24T22:05:36.190Z,62.60
2018-07-24T22:10:30.613Z,64.50
2018-07-24T22:12:57.879Z,65.10
2018-07-24T22:15:25.905Z,65.30
2018-07-24T22:17:53.212Z,65.70
2018-07-24T22:20:20.811Z,66.20
2018-07-24T22:22:49.396Z,66.00
2018-07-24T22:25:16.932Z,66.40
2018-07-24T22:27:44.186Z,67.60
2018-07-24T22:30:11.846Z,68.50
2018-07-24T22:32:39.537Z,69.20
2018-07-24T22:35:07.572Z,69.60
2018-07-24T22:37:35.197Z,69.70
2018-07-24T22:40:02.443Z,70.30
2018-07-24T22:42:29.619Z,70.60
2018-07-24T22:44:56.843Z,70.50
2018-07-24T22:47:24.032Z,71.60
2018-07-24T22:49:51.233Z,72.00
2018-07-24T22:52:18.424Z,72.50
2018-07-24T22:54:45.596Z,73.20
2018-07-24T22:57:12.872Z,74.10
2018-07-24T22:59:40.215Z,75.10
2018-07-24T23:02:07.487Z,76.10
2018-07-24T23:04:34.740Z,77.40
2018-07-24T23:07:01.964Z,78.20
2018-07-24T23:11:56.372Z,79.80
2018-07-24T23:14:23.628Z,80.60
2018-07-24T23:16:51.715Z,81.70
2018-07-24T23:19:18.826Z,82.60
2018-07-24T23:21:46.076Z,82.50
2018-07-24T23:29:07.557Z,84.00
2018-07-24T23:31:34.773Z,84.40
2018-07-24T23:34:01.950Z,84.80
2018-07-24T23:38:56.466Z,85.70
2018-07-24T23:41:23.792Z,85.50
2018-07-24T23:43:51.084Z,85.70
2018-07-24T23:51:12.932Z,87.60
2018-07-24T23:53:40.180Z,88.60
2018-07-24T23:56:07.374Z,89.20
2018-07-24T23:58:34.528Z,89.50
